Archival Weather

Chicago O'Hare International

Chicago, Illinois (KORD)

Report from: Saturday, March 5, 2022 6:51 PM CST
Current time: Saturday, February 4, 2023 10:13 PM CST

Current weather
Weather history
Weather forecast

Temperature18.3°C (64.9°F)
Dew point10.6°C (51.1°F)
Winds 18 kts (9.3 m/s, 20.7 mph) South (190°)
Wind gusts 34 kts (17.5 m/s, 39.1 mph)
Peak wind 36 kts (18.5 m/s, 41.4 mph) South (180°) at 18:11
Visibility10 mi. (16.1 km)
Clouds Few clouds 4,000 ft. (1,219 m)
Ceiling: Broken clouds 8,000 ft. (2,438 m)
Altimeter29.68 in.Hg (1005 mB)
Relative humidity61 %
Density altitude845 ft. (258 m)
Sea-level pressure100.5 kPa (1005 mB, 29.68 in.Hg)
Remarks System requires maintenance
Automated weather observing station with precipitation discriminator
Pressure falling rapidly
Flight conditions Visual Meteorological Conditions
Raw dataKORD 060051Z 19018G34KT 10SM FEW040 BKN080 18/11 A2968 RMK AO2 PK WND 18036/0011 PRESFR SLP051 T01830106 $
An unhandled exception has occurred. See browser dev tools for details. Reload 🗙